Detroit, Michigan
Traffic Map
Current Weather Conditions
Detroit, Michigan
Overcast Thunderstorm
Overcast
22°
Feels Like: 22°
Wind Chill: 22° Ceiling: 4000
Heat Index: 22° Visibility: 2.5mi
Dew Point: 21° Wind: 9mph
Humidity: 94% Direction: 20° (NNE)
Pressure: 29.92in Gusts: 0mph
Raw Report DataCYQG 032324Z 02008KT 270V040 2 1/2SM TSRA BR BKN040CB OVC090 22/21 A2992 RMK CB6AC2 VIS 1 E PRESFR SLP131 DENSITY ALT 1500FT
Traffic Incident Summary
Active as of:
Severity:
Category:
InformationThere was an issue retrieving the traffic information for this location. Please try a different location or try again shortly.
Advertisements
Track Severe Weather on mobile